createdAt,value
2022-09-24T00:01:16.173Z,6.87
2022-09-24T00:03:46.855Z,6.53
2022-09-24T00:06:15.318Z,5.53
2022-09-24T00:08:43.469Z,6.93
2022-09-24T00:11:14.548Z,7.83
2022-09-24T00:13:44.502Z,8.50
2022-09-24T00:16:15.544Z,7.73
2022-09-24T00:18:44.877Z,8.67
2022-09-24T00:21:15.543Z,7.23
2022-09-24T00:23:44.389Z,6.77
2022-09-24T00:26:30.792Z,5.90
2022-09-24T00:29:01.115Z,7.17
2022-09-24T00:31:30.281Z,7.83
2022-09-24T00:33:59.704Z,7.37
2022-09-24T00:36:28.893Z,5.70
2022-09-24T00:38:59.827Z,6.87
2022-09-24T00:41:30.717Z,6.33
2022-09-24T00:44:01.926Z,6.57
2022-09-24T00:46:34.565Z,6.57
2022-09-24T00:49:14.708Z,6.77
2022-09-24T00:51:47.206Z,8.57
2022-09-24T00:54:20.961Z,8.07
2022-09-24T00:56:52.037Z,7.83
2022-09-24T00:59:25.536Z,8.63
2022-09-24T01:01:59.559Z,7.93
2022-09-24T01:04:30.144Z,7.33
2022-09-24T01:07:00.692Z,7.53
2022-09-24T01:09:33.143Z,9.70
2022-09-24T01:12:11.621Z,6.33
2022-09-24T01:15:00.326Z,7.13
2022-09-24T01:17:38.727Z,7.53
2022-09-24T01:20:37.795Z,7.73
2022-09-24T01:23:29.579Z,8.40
2022-09-24T01:26:20.231Z,7.20
2022-09-24T01:29:06.830Z,8.03
2022-09-24T01:31:44.766Z,5.70
2022-09-24T01:34:24.428Z,5.10
2022-09-24T01:36:55.574Z,6.77
2022-09-24T01:39:26.127Z,5.97
2022-09-24T01:41:57.496Z,7.67
2022-09-24T01:44:26.252Z,8.80
2022-09-24T01:46:59.606Z,6.70
2022-09-24T01:49:28.532Z,8.17
2022-09-24T01:52:01.678Z,6.73
2022-09-24T01:54:36.226Z,6.03
2022-09-24T01:57:11.115Z,6.63
2022-09-24T01:59:45.092Z,7.17
2022-09-24T02:02:20.651Z,8.90
2022-09-24T02:04:55.138Z,11.13
2022-09-24T02:07:28.810Z,10.20
2022-09-24T02:09:57.217Z,7.97
2022-09-24T02:12:29.874Z,8.57
2022-09-24T02:15:03.750Z,8.43
2022-09-24T02:17:38.536Z,6.60
2022-09-24T02:20:14.943Z,8.00
2022-09-24T02:22:45.914Z,8.03
2022-09-24T02:25:21.483Z,6.97
2022-09-24T02:27:50.364Z,7.77
2022-09-24T02:30:19.109Z,9.53
2022-09-24T02:32:51.214Z,8.43
2022-09-24T02:35:20.216Z,7.70
2022-09-24T02:37:50.221Z,8.60
2022-09-24T02:40:18.735Z,7.70
2022-09-24T02:42:50.862Z,6.93
2022-09-24T02:45:19.252Z,6.63
2022-09-24T02:47:49.172Z,7.00
2022-09-24T02:50:17.716Z,10.43
2022-09-24T02:52:46.118Z,7.10
2022-09-24T02:55:14.378Z,7.33
2022-09-24T02:57:42.488Z,8.50
2022-09-24T03:00:12.575Z,10.20
2022-09-24T03:02:41.869Z,7.07
2022-09-24T03:05:11.765Z,6.70
2022-09-24T03:07:41.739Z,6.83
2022-09-24T03:10:11.167Z,7.83
2022-09-24T03:12:39.321Z,8.67
2022-09-24T03:15:08.241Z,8.03
2022-09-24T03:17:37.036Z,8.97
2022-09-24T03:20:06.143Z,6.30
2022-09-24T03:22:36.278Z,6.57
2022-09-24T03:25:05.208Z,6.87
2022-09-24T03:27:34.403Z,7.33
2022-09-24T03:30:20.305Z,9.20
2022-09-24T03:32:49.889Z,8.87
2022-09-24T03:35:18.329Z,8.80
2022-09-24T03:37:50.621Z,7.13
2022-09-24T03:40:19.267Z,5.73
2022-09-24T03:42:47.712Z,7.63
2022-09-24T03:45:17.077Z,7.00
2022-09-24T03:47:45.535Z,6.20
2022-09-24T03:50:13.954Z,7.90
2022-09-24T03:52:42.717Z,6.93
2022-09-24T03:55:13.548Z,6.60
2022-09-24T03:57:41.971Z,7.30
2022-09-24T04:00:11.904Z,8.37
2022-09-24T04:02:41.285Z,6.90
2022-09-24T04:05:10.401Z,7.63
2022-09-24T04:07:39.125Z,8.67
2022-09-24T04:10:09.104Z,6.53
2022-09-24T04:12:38.836Z,7.93
2022-09-24T04:15:08.271Z,6.30
2022-09-24T04:17:39.076Z,10.10
2022-09-24T04:20:09.239Z,7.30
2022-09-24T04:22:37.859Z,9.37
2022-09-24T04:25:09.221Z,7.37
2022-09-24T04:27:42.593Z,8.20
2022-09-24T04:30:13.110Z,6.87
2022-09-24T04:32:41.456Z,7.67
2022-09-24T04:35:11.007Z,8.47
2022-09-24T04:37:39.669Z,11.20
2022-09-24T04:40:12.758Z,7.77
2022-09-24T04:42:43.215Z,6.17
2022-09-24T04:45:12.454Z,7.77
2022-09-24T04:47:42.182Z,6.57
2022-09-24T04:50:13.683Z,5.93
2022-09-24T04:52:42.110Z,7.37
2022-09-24T04:55:11.088Z,7.17
2022-09-24T04:57:42.146Z,7.23
2022-09-24T05:00:17.675Z,9.50
2022-09-24T05:02:47.084Z,6.87
2022-09-24T05:05:16.635Z,6.93
2022-09-24T05:07:47.809Z,7.97
2022-09-24T05:10:16.126Z,7.80
2022-09-24T05:12:46.945Z,8.90
2022-09-24T05:15:18.496Z,9.43
2022-09-24T05:17:50.237Z,7.43
2022-09-24T05:20:23.923Z,6.57
2022-09-24T05:22:53.439Z,6.97
2022-09-24T05:25:24.479Z,6.50
2022-09-24T05:27:53.437Z,8.80
2022-09-24T05:30:25.064Z,6.87
2022-09-24T05:32:53.633Z,6.83
2022-09-24T05:35:23.408Z,8.93
2022-09-24T05:37:53.880Z,7.37
2022-09-24T05:40:41.260Z,5.97
2022-09-24T05:43:09.732Z,9.50
2022-09-24T05:45:40.377Z,7.03
2022-09-24T05:48:08.537Z,6.63
2022-09-24T05:50:36.734Z,8.10
2022-09-24T05:53:06.393Z,9.00
2022-09-24T05:55:37.019Z,7.70
2022-09-24T05:58:11.797Z,7.17
2022-09-24T06:00:42.616Z,7.67
2022-09-24T06:03:15.043Z,8.43
2022-09-24T06:05:47.295Z,8.13
2022-09-24T06:08:16.888Z,9.63
2022-09-24T06:10:47.712Z,9.83
2022-09-24T06:13:19.409Z,11.77
2022-09-24T06:15:49.444Z,13.37
2022-09-24T06:18:19.818Z,11.60
2022-09-24T06:20:49.333Z,10.80
2022-09-24T06:23:18.264Z,11.23
2022-09-24T06:25:51.179Z,10.63
2022-09-24T06:28:19.608Z,12.20
2022-09-24T06:30:49.624Z,8.23
2022-09-24T06:33:18.052Z,8.10
2022-09-24T06:35:46.721Z,9.67
2022-09-24T06:38:17.180Z,9.07
2022-09-24T06:40:47.375Z,8.63
2022-09-24T06:43:18.279Z,9.67
2022-09-24T06:45:46.994Z,7.30
2022-09-24T06:48:19.029Z,8.00
2022-09-24T06:50:47.828Z,8.90
2022-09-24T06:53:16.880Z,10.33
2022-09-24T06:55:46.832Z,9.10
2022-09-24T06:58:17.649Z,8.73
2022-09-24T07:00:59.331Z,8.80
2022-09-24T07:03:31.517Z,13.03
2022-09-24T07:06:03.681Z,10.83
2022-09-24T07:08:32.292Z,12.03
2022-09-24T07:11:00.902Z,10.43
2022-09-24T07:13:29.975Z,9.47
2022-09-24T07:15:58.352Z,9.47
2022-09-24T07:18:26.553Z,10.20
2022-09-24T07:20:57.580Z,10.70
2022-09-24T07:23:29.616Z,11.10
2022-09-24T07:25:58.522Z,10.70
2022-09-24T07:28:27.325Z,10.30
2022-09-24T07:31:00.548Z,11.50
2022-09-24T07:33:29.986Z,10.93
2022-09-24T07:36:02.361Z,10.47
2022-09-24T07:38:31.177Z,12.87
2022-09-24T07:41:00.829Z,11.53
2022-09-24T07:43:29.343Z,11.17
2022-09-24T07:45:58.450Z,11.17
2022-09-24T07:48:27.044Z,12.53
2022-09-24T07:50:57.826Z,11.27
2022-09-24T07:53:27.997Z,12.17
2022-09-24T07:56:01.418Z,11.60
2022-09-24T07:58:30.133Z,13.93
2022-09-24T08:00:59.258Z,13.87
2022-09-24T08:03:33.331Z,12.80
2022-09-24T08:06:03.041Z,16.37
2022-09-24T08:08:33.440Z,13.53
2022-09-24T08:11:05.006Z,14.60
2022-09-24T08:13:34.539Z,14.37
2022-09-24T08:16:06.948Z,12.47
2022-09-24T08:18:35.823Z,13.60
2022-09-24T08:21:06.793Z,12.03
2022-09-24T08:23:38.347Z,11.30
2022-09-24T08:26:10.203Z,11.50
2022-09-24T08:28:40.122Z,13.17
2022-09-24T08:31:13.155Z,13.00
2022-09-24T08:33:42.241Z,10.70
2022-09-24T08:36:13.230Z,11.97
2022-09-24T08:38:43.608Z,13.90
2022-09-24T08:41:27.224Z,10.80
2022-09-24T08:44:05.786Z,11.00
2022-09-24T08:46:56.278Z,12.43
2022-09-24T08:49:32.569Z,9.67
2022-09-24T08:52:24.738Z,11.70
2022-09-24T08:54:56.150Z,10.07
2022-09-24T08:57:24.653Z,10.73
2022-09-24T08:59:54.934Z,10.93
2022-09-24T09:02:38.717Z,9.90
2022-09-24T09:05:15.825Z,12.13
2022-09-24T09:07:51.729Z,10.70
2022-09-24T09:10:29.239Z,11.10
2022-09-24T09:13:03.383Z,9.50
2022-09-24T09:15:35.618Z,8.93
2022-09-24T09:18:13.120Z,9.13
2022-09-24T09:20:43.833Z,9.80
2022-09-24T09:23:20.050Z,8.87
2022-09-24T09:25:54.244Z,9.63
2022-09-24T09:28:22.425Z,9.17
2022-09-24T09:31:07.193Z,13.50
2022-09-24T09:33:59.906Z,11.60
2022-09-24T09:36:43.450Z,9.60
2022-09-24T09:39:24.824Z,8.53
2022-09-24T09:42:04.018Z,8.47
2022-09-24T09:44:39.310Z,7.23
2022-09-24T09:47:21.568Z,9.93
2022-09-24T09:49:53.697Z,6.77
2022-09-24T09:52:25.084Z,9.40
2022-09-24T09:54:53.693Z,7.63
2022-09-24T09:57:28.785Z,8.67
2022-09-24T09:59:57.212Z,10.47
2022-09-24T10:02:28.851Z,7.97
2022-09-24T10:04:59.732Z,11.93
2022-09-24T10:07:28.116Z,9.70
2022-09-24T10:10:05.661Z,7.33
2022-09-24T10:12:38.270Z,7.00
2022-09-24T10:15:20.065Z,8.83
2022-09-24T10:17:54.353Z,6.93
2022-09-24T10:20:28.172Z,7.87
2022-09-24T10:23:01.999Z,9.37
2022-09-24T10:25:33.202Z,9.53
2022-09-24T10:28:22.720Z,7.27
2022-09-24T10:30:58.604Z,9.73
2022-09-24T10:33:28.272Z,8.80
2022-09-24T10:36:08.167Z,7.97
2022-09-24T10:38:36.427Z,6.73
2022-09-24T10:41:15.985Z,6.60
2022-09-24T10:43:58.993Z,7.47
2022-09-24T10:46:42.762Z,7.93
2022-09-24T10:49:23.833Z,5.13
2022-09-24T10:52:02.304Z,11.47
2022-09-24T10:54:45.344Z,10.67
2022-09-24T10:57:25.475Z,5.37
2022-09-24T11:00:05.863Z,7.97
2022-09-24T11:03:09.820Z,7.27
2022-09-24T11:05:42.917Z,8.47
2022-09-24T11:08:22.789Z,8.30
2022-09-24T11:11:18.015Z,8.00
2022-09-24T11:13:57.173Z,5.70
2022-09-24T11:16:51.784Z,6.10
2022-09-24T11:19:33.973Z,6.93
2022-09-24T11:22:13.109Z,6.10
2022-09-24T11:25:07.888Z,5.00
2022-09-24T11:27:52.949Z,6.20
2022-09-24T11:30:25.355Z,7.03
2022-09-24T11:33:22.843Z,5.47
2022-09-24T11:36:14.411Z,4.80
2022-09-24T11:39:02.178Z,5.03
2022-09-24T11:41:41.740Z,5.43
2022-09-24T11:44:41.764Z,8.83
2022-09-24T11:47:26.378Z,8.67
2022-09-24T11:50:15.769Z,6.63
2022-09-24T11:52:49.947Z,8.70
2022-09-24T11:55:24.222Z,6.17
2022-09-24T11:57:58.548Z,3.70
2022-09-24T12:00:32.822Z,4.37
2022-09-24T12:03:05.436Z,5.87
2022-09-24T12:05:39.851Z,7.00
2022-09-24T12:08:14.651Z,5.63
2022-09-24T12:10:47.346Z,5.77
2022-09-24T12:13:20.616Z,3.33
2022-09-24T12:15:54.355Z,4.77
2022-09-24T12:18:27.551Z,7.20
2022-09-24T12:21:07.357Z,7.10
2022-09-24T12:23:41.211Z,4.22
2022-09-24T12:26:11.861Z,3.00
2022-09-24T12:29:05.752Z,5.32
2022-09-24T12:32:01.036Z,4.97
2022-09-24T12:34:39.046Z,2.42
2022-09-24T12:37:12.263Z,4.43
2022-09-24T12:39:49.707Z,3.85
2022-09-24T12:42:21.993Z,3.53
2022-09-24T12:44:56.172Z,4.00
2022-09-24T12:47:26.953Z,4.00
2022-09-24T12:50:00.014Z,3.30
2022-09-24T12:52:45.286Z,3.28
2022-09-24T12:55:22.277Z,6.15
2022-09-24T12:57:56.363Z,2.90
2022-09-24T13:00:42.600Z,3.92
2022-09-24T13:03:33.700Z,4.80
2022-09-24T13:06:02.449Z,3.50
2022-09-24T13:08:46.014Z,2.55
2022-09-24T13:11:30.249Z,3.13
2022-09-24T13:14:19.542Z,4.97
2022-09-24T13:16:50.851Z,3.60
2022-09-24T13:19:36.637Z,4.15
2022-09-24T13:22:05.212Z,2.25
2022-09-24T13:24:46.719Z,4.05
2022-09-24T13:27:38.073Z,2.83
2022-09-24T13:30:18.142Z,3.20
2022-09-24T13:32:52.836Z,2.25
2022-09-24T13:35:26.110Z,3.47
2022-09-24T13:38:02.937Z,2.53
2022-09-24T13:40:41.128Z,3.15
2022-09-24T13:43:19.769Z,3.42
2022-09-24T13:45:48.763Z,3.25
2022-09-24T13:48:26.814Z,3.90
2022-09-24T13:50:55.731Z,3.05
2022-09-24T13:53:31.097Z,4.53
2022-09-24T13:56:06.038Z,2.60
2022-09-24T13:58:36.299Z,3.53
2022-09-24T14:01:11.880Z,3.30
2022-09-24T14:03:41.916Z,4.28
2022-09-24T14:06:16.379Z,2.55
2022-09-24T14:08:47.604Z,5.28
2022-09-24T14:11:21.031Z,2.97
2022-09-24T14:13:49.814Z,4.47
2022-09-24T14:16:20.000Z,3.17
2022-09-24T14:18:48.863Z,3.92
2022-09-24T14:21:24.041Z,3.90
2022-09-24T14:23:56.150Z,4.63
2022-09-24T14:26:30.294Z,5.38
2022-09-24T14:29:01.671Z,4.20
2022-09-24T14:31:32.293Z,5.95
2022-09-24T14:34:06.156Z,4.95
2022-09-24T14:36:37.612Z,5.88
2022-09-24T14:39:07.319Z,5.05
2022-09-24T14:41:37.984Z,4.18
2022-09-24T14:44:10.013Z,4.38
2022-09-24T14:46:49.057Z,5.72
2022-09-24T14:49:23.441Z,4.38
2022-09-24T14:51:57.530Z,4.73
2022-09-24T14:54:34.100Z,3.30
2022-09-24T14:57:25.816Z,4.87
2022-09-24T14:59:54.545Z,4.70
2022-09-24T15:02:27.693Z,5.18
2022-09-24T15:05:04.865Z,6.63
2022-09-24T15:07:35.511Z,5.33
2022-09-24T15:10:07.086Z,4.17
2022-09-24T15:12:39.225Z,5.13
2022-09-24T15:15:29.129Z,5.77
2022-09-24T15:17:57.748Z,3.67
2022-09-24T15:20:25.937Z,5.00
2022-09-24T15:22:54.320Z,6.40
2022-09-24T15:25:25.359Z,3.97
2022-09-24T15:27:55.145Z,3.07
2022-09-24T15:30:25.972Z,3.27
2022-09-24T15:32:54.015Z,5.27
2022-09-24T15:35:24.325Z,4.97
2022-09-24T15:37:53.114Z,5.47
2022-09-24T15:40:29.548Z,4.17
2022-09-24T15:42:59.308Z,4.43
2022-09-24T15:45:27.431Z,3.27
2022-09-24T15:47:56.426Z,5.47
2022-09-24T15:50:26.327Z,5.40
2022-09-24T15:52:57.029Z,22.93
2022-09-24T15:55:27.022Z,40.50
2022-09-24T15:57:55.653Z,5.47
2022-09-24T16:00:26.377Z,5.10
2022-09-24T16:02:56.604Z,4.87
2022-09-24T16:05:25.316Z,3.33
2022-09-24T16:07:53.983Z,3.07
2022-09-24T16:10:22.912Z,6.00
2022-09-24T16:12:51.112Z,5.43
2022-09-24T16:15:21.810Z,3.10
2022-09-24T16:17:51.886Z,5.63
2022-09-24T16:20:20.704Z,5.13
2022-09-24T16:22:49.050Z,3.90
2022-09-24T16:25:17.470Z,4.60
2022-09-24T16:27:45.931Z,3.80
2022-09-24T16:30:14.497Z,6.17
2022-09-24T16:32:44.253Z,4.13
2022-09-24T16:35:13.824Z,6.67
2022-09-24T16:37:42.539Z,5.37
2022-09-24T16:40:12.275Z,5.33
2022-09-24T16:42:41.687Z,8.70
2022-09-24T16:45:12.663Z,5.20
2022-09-24T16:47:40.817Z,4.97
2022-09-24T16:50:11.022Z,7.37
2022-09-24T16:52:40.807Z,6.20
2022-09-24T16:55:10.490Z,6.33
2022-09-24T16:57:38.960Z,5.47
2022-09-24T17:00:09.341Z,6.33
2022-09-24T17:02:38.400Z,14.90
2022-09-24T17:05:08.174Z,17.37
2022-09-24T17:07:36.834Z,12.73
2022-09-24T17:10:16.132Z,14.87
2022-09-24T17:12:46.502Z,24.50
2022-09-24T17:15:15.905Z,23.33
2022-09-24T17:17:49.927Z,33.20
2022-09-24T17:20:19.420Z,15.93
2022-09-24T17:22:52.684Z,6.87
2022-09-24T17:25:22.191Z,4.80
2022-09-24T17:27:51.839Z,5.43
2022-09-24T17:30:20.331Z,5.57
2022-09-24T17:32:48.900Z,5.27
2022-09-24T17:35:17.978Z,3.70
2022-09-24T17:37:46.680Z,4.67
2022-09-24T17:40:22.947Z,5.60
2022-09-24T17:42:53.591Z,9.17
2022-09-24T17:45:22.879Z,4.93
2022-09-24T17:48:01.230Z,6.10
2022-09-24T17:50:30.052Z,6.83
2022-09-24T17:53:00.160Z,7.80
2022-09-24T17:55:28.555Z,8.07
2022-09-24T17:57:58.086Z,6.70
2022-09-24T18:00:26.171Z,6.03
2022-09-24T18:02:55.751Z,6.30
2022-09-24T18:05:24.171Z,6.40
2022-09-24T18:07:52.578Z,9.30
2022-09-24T18:10:21.117Z,9.30
2022-09-24T18:12:49.220Z,7.93
2022-09-24T18:15:19.032Z,7.80
2022-09-24T18:17:49.504Z,6.73
2022-09-24T18:20:18.255Z,8.27
2022-09-24T18:22:47.341Z,6.43
2022-09-24T18:25:15.632Z,5.50
2022-09-24T18:27:45.586Z,7.43
2022-09-24T18:30:15.869Z,6.93
2022-09-24T18:32:47.828Z,8.53
2022-09-24T18:35:18.106Z,6.77
2022-09-24T18:37:46.788Z,7.90
2022-09-24T18:40:18.552Z,9.37
2022-09-24T18:42:47.359Z,10.57
2022-09-24T18:45:15.629Z,11.97
2022-09-24T18:47:44.019Z,11.30
2022-09-24T18:50:13.987Z,6.60
2022-09-24T18:52:42.309Z,6.23
2022-09-24T18:55:11.936Z,7.90
2022-09-24T18:57:40.116Z,7.17
2022-09-24T19:00:30.825Z,7.40
2022-09-24T19:03:00.034Z,5.67
2022-09-24T19:05:30.340Z,6.40
2022-09-24T19:07:59.380Z,5.97
2022-09-24T19:10:27.519Z,7.07
2022-09-24T19:12:55.812Z,6.50
2022-09-24T19:15:25.964Z,6.77
2022-09-24T19:17:54.362Z,7.90
2022-09-24T19:20:22.613Z,11.03
2022-09-24T19:23:00.282Z,8.80
2022-09-24T19:25:29.159Z,9.10
2022-09-24T19:27:58.095Z,11.93
2022-09-24T19:30:27.805Z,14.87
2022-09-24T19:32:56.228Z,14.43
2022-09-24T19:35:24.634Z,16.53
2022-09-24T19:37:54.740Z,16.63
2022-09-24T19:40:23.601Z,18.63
2022-09-24T19:42:51.781Z,14.20
2022-09-24T19:45:19.948Z,16.87
2022-09-24T19:47:48.886Z,17.13
2022-09-24T19:50:17.987Z,12.67
2022-09-24T19:52:48.995Z,14.67
2022-09-24T19:55:18.982Z,14.83
2022-09-24T19:57:47.194Z,15.50
2022-09-24T20:00:16.455Z,13.67
2022-09-24T20:02:45.081Z,12.87
2022-09-24T20:05:15.881Z,12.10
2022-09-24T20:07:46.049Z,12.10
2022-09-24T20:10:14.719Z,16.80
2022-09-24T20:12:46.805Z,14.00
2022-09-24T20:15:15.241Z,12.73
2022-09-24T20:17:43.586Z,14.87
2022-09-24T20:20:11.995Z,13.20
2022-09-24T20:22:40.308Z,23.17
2022-09-24T20:25:11.857Z,14.07
2022-09-24T20:27:55.478Z,13.37
2022-09-24T20:30:25.274Z,14.67
2022-09-24T20:32:53.711Z,14.20
2022-09-24T20:35:22.036Z,14.77
2022-09-24T20:37:50.295Z,12.73
2022-09-24T20:40:20.458Z,13.80
2022-09-24T20:42:49.451Z,14.03
2022-09-24T20:45:18.043Z,15.57
2022-09-24T20:47:50.021Z,14.67
2022-09-24T20:50:19.509Z,13.93
2022-09-24T20:52:47.988Z,13.07
2022-09-24T20:55:16.806Z,15.47
2022-09-24T20:57:46.181Z,13.50
2022-09-24T21:00:15.587Z,13.30
2022-09-24T21:02:44.630Z,13.87
2022-09-24T21:05:14.657Z,17.03
2022-09-24T21:07:42.907Z,15.53
2022-09-24T21:10:13.209Z,14.93
2022-09-24T21:12:41.651Z,16.50
2022-09-24T21:15:13.925Z,16.97
2022-09-24T21:17:59.460Z,15.83
2022-09-24T21:20:38.175Z,17.80
2022-09-24T21:23:07.660Z,15.13
2022-09-24T21:25:53.950Z,18.13
2022-09-24T21:28:23.137Z,17.60
2022-09-24T21:30:58.296Z,16.50
2022-09-24T21:33:26.805Z,19.40
2022-09-24T21:35:59.017Z,18.23
2022-09-24T21:38:27.381Z,18.50
2022-09-24T21:40:57.568Z,17.63
2022-09-24T21:43:34.467Z,18.10
2022-09-24T21:46:05.216Z,16.20
2022-09-24T21:48:34.583Z,17.27
2022-09-24T21:51:09.295Z,16.30
2022-09-24T21:53:39.335Z,16.83
2022-09-24T21:56:08.810Z,19.57
2022-09-24T21:58:39.172Z,17.70
2022-09-24T22:01:14.191Z,17.40
2022-09-24T22:03:43.262Z,17.23
2022-09-24T22:06:14.441Z,17.90
2022-09-24T22:08:43.324Z,16.37
2022-09-24T22:11:13.559Z,16.43
2022-09-24T22:13:42.663Z,16.87
2022-09-24T22:16:12.317Z,19.47
2022-09-24T22:18:40.879Z,18.00
2022-09-24T22:21:11.332Z,17.63
2022-09-24T22:23:41.764Z,16.83
2022-09-24T22:26:11.513Z,17.37
2022-09-24T22:28:39.764Z,16.60
2022-09-24T22:31:09.660Z,20.63
2022-09-24T22:33:56.174Z,16.70
2022-09-24T22:36:28.704Z,19.13
2022-09-24T22:39:00.405Z,17.67
2022-09-24T22:41:30.074Z,19.70
2022-09-24T22:44:00.232Z,17.13
2022-09-24T22:46:28.771Z,18.37
2022-09-24T22:48:58.146Z,15.67
2022-09-24T22:51:27.903Z,17.77
2022-09-24T22:53:57.859Z,16.77
2022-09-24T22:56:27.517Z,17.30
2022-09-24T22:58:57.674Z,20.33
2022-09-24T23:01:28.827Z,17.47
2022-09-24T23:03:57.926Z,17.10
2022-09-24T23:06:26.616Z,18.07
2022-09-24T23:08:56.383Z,18.70
2022-09-24T23:11:28.613Z,19.00
2022-09-24T23:13:58.396Z,18.83
2022-09-24T23:16:28.218Z,22.90
2022-09-24T23:18:58.871Z,18.47
2022-09-24T23:21:30.641Z,18.67
2022-09-24T23:24:00.434Z,19.70
2022-09-24T23:26:31.636Z,18.43
2022-09-24T23:29:01.376Z,19.33
2022-09-24T23:31:31.460Z,21.23
2022-09-24T23:34:01.462Z,19.03
2022-09-24T23:36:32.293Z,19.87
2022-09-24T23:39:01.699Z,15.90
2022-09-24T23:41:33.592Z,16.30
2022-09-24T23:44:03.488Z,15.73
2022-09-24T23:46:34.008Z,15.87
2022-09-24T23:49:02.404Z,18.17
2022-09-24T23:51:30.806Z,15.80
2022-09-24T23:54:00.478Z,16.43
2022-09-24T23:56:29.678Z,15.27
2022-09-24T23:59:01.970Z,13.83
